sensor_id;sensor_type;location;lat;lon;timestamp;temperature;humidity
1379;DHT22;683;48.738;9.226;2022-12-07T00:00:53;3.30;99.90
1379;DHT22;683;48.738;9.226;2022-12-07T00:03:20;3.30;99.90
1379;DHT22;683;48.738;9.226;2022-12-07T00:05:48;3.40;99.90
1379;DHT22;683;48.738;9.226;2022-12-07T00:08:15;3.30;99.90
1379;DHT22;683;48.738;9.226;2022-12-07T00:10:43;3.40;99.90
1379;DHT22;683;48.738;9.226;2022-12-07T00:13:11;3.30;99.90
1379;DHT22;683;48.738;9.226;2022-12-07T00:15:38;3.30;99.90
1379;DHT22;683;48.738;9.226;2022-12-07T00:18:05;3.30;99.90
1379;DHT22;683;48.738;9.226;2022-12-07T00:20:32;3.30;99.90
1379;DHT22;683;48.738;9.226;2022-12-07T00:22:59;3.30;99.90
1379;DHT22;683;48.738;9.226;2022-12-07T00:25:27;3.30;99.90
1379;DHT22;683;48.738;9.226;2022-12-07T00:27:55;3.30;99.90
1379;DHT22;683;48.738;9.226;2022-12-07T00:30:23;3.30;99.90
1379;DHT22;683;48.738;9.226;2022-12-07T00:32:50;3.30;99.90
1379;DHT22;683;48.738;9.226;2022-12-07T00:35:17;3.30;99.90
1379;DHT22;683;48.738;9.226;2022-12-07T00:37:45;3.40;99.90
1379;DHT22;683;48.738;9.226;2022-12-07T00:40:12;3.30;99.90
1379;DHT22;683;48.738;9.226;2022-12-07T00:42:39;3.30;99.90
1379;DHT22;683;48.738;9.226;2022-12-07T00:45:09;3.40;99.90
1379;DHT22;683;48.738;9.226;2022-12-07T00:47:36;3.30;99.90
1379;DHT22;683;48.738;9.226;2022-12-07T00:50:04;3.30;99.90
1379;DHT22;683;48.738;9.226;2022-12-07T00:52:31;3.20;99.90
1379;DHT22;683;48.738;9.226;2022-12-07T00:54:58;3.20;99.90
1379;DHT22;683;48.738;9.226;2022-12-07T00:57:25;3.20;99.90
1379;DHT22;683;48.738;9.226;2022-12-07T00:59:53;3.20;99.90
1379;DHT22;683;48.738;9.226;2022-12-07T01:02:22;3.10;99.90
1379;DHT22;683;48.738;9.226;2022-12-07T01:04:49;3.10;99.90
1379;DHT22;683;48.738;9.226;2022-12-07T01:07:16;3.10;99.90
1379;DHT22;683;48.738;9.226;2022-12-07T01:09:44;3.10;99.90
1379;DHT22;683;48.738;9.226;2022-12-07T01:12:11;3.20;99.90
1379;DHT22;683;48.738;9.226;2022-12-07T01:14:38;3.20;99.90
1379;DHT22;683;48.738;9.226;2022-12-07T01:17:05;3.20;99.90
1379;DHT22;683;48.738;9.226;2022-12-07T01:19:34;3.20;99.90
1379;DHT22;683;48.738;9.226;2022-12-07T01:22:01;3.20;99.90
1379;DHT22;683;48.738;9.226;2022-12-07T01:24:28;3.10;99.90
1379;DHT22;683;48.738;9.226;2022-12-07T01:26:55;3.20;99.90
1379;DHT22;683;48.738;9.226;2022-12-07T01:29:23;3.20;99.90
1379;DHT22;683;48.738;9.226;2022-12-07T01:31:50;3.20;99.90
1379;DHT22;683;48.738;9.226;2022-12-07T01:34:17;3.10;99.90
1379;DHT22;683;48.738;9.226;2022-12-07T01:36:46;3.10;99.90
1379;DHT22;683;48.738;9.226;2022-12-07T01:39:13;3.10;99.90
1379;DHT22;683;48.738;9.226;2022-12-07T01:41:41;3.10;99.90
1379;DHT22;683;48.738;9.226;2022-12-07T01:44:18;3.10;99.90
1379;DHT22;683;48.738;9.226;2022-12-07T01:46:47;3.10;99.90
1379;DHT22;683;48.738;9.226;2022-12-07T01:49:23;3.10;99.90
1379;DHT22;683;48.738;9.226;2022-12-07T01:51:58;3.10;99.90
1379;DHT22;683;48.738;9.226;2022-12-07T01:54:27;3.10;99.90
1379;DHT22;683;48.738;9.226;2022-12-07T01:56:56;3.00;99.90
1379;DHT22;683;48.738;9.226;2022-12-07T01:59:25;3.00;99.90
1379;DHT22;683;48.738;9.226;2022-12-07T02:01:53;2.90;99.90
1379;DHT22;683;48.738;9.226;2022-12-07T02:04:22;2.90;99.90
1379;DHT22;683;48.738;9.226;2022-12-07T02:06:50;3.00;99.90
1379;DHT22;683;48.738;9.226;2022-12-07T02:09:20;3.00;99.90
1379;DHT22;683;48.738;9.226;2022-12-07T02:11:47;3.00;99.90
1379;DHT22;683;48.738;9.226;2022-12-07T02:14:14;3.00;99.90
1379;DHT22;683;48.738;9.226;2022-12-07T02:16:55;3.00;99.90
1379;DHT22;683;48.738;9.226;2022-12-07T02:19:57;3.00;99.90
1379;DHT22;683;48.738;9.226;2022-12-07T02:22:59;2.90;99.90
1379;DHT22;683;48.738;9.226;2022-12-07T02:25:42;2.90;99.90
1379;DHT22;683;48.738;9.226;2022-12-07T02:28:19;2.90;99.90
1379;DHT22;683;48.738;9.226;2022-12-07T02:30:51;3.00;99.90
1379;DHT22;683;48.738;9.226;2022-12-07T02:33:24;2.90;99.90
1379;DHT22;683;48.738;9.226;2022-12-07T02:35:57;2.90;99.90
1379;DHT22;683;48.738;9.226;2022-12-07T02:38:31;2.90;99.90
1379;DHT22;683;48.738;9.226;2022-12-07T02:41:06;2.90;99.90
1379;DHT22;683;48.738;9.226;2022-12-07T02:43:38;2.90;99.90
1379;DHT22;683;48.738;9.226;2022-12-07T02:46:09;2.90;99.90
1379;DHT22;683;48.738;9.226;2022-12-07T02:48:38;2.80;99.90
1379;DHT22;683;48.738;9.226;2022-12-07T02:51:06;2.80;99.90
1379;DHT22;683;48.738;9.226;2022-12-07T02:53:35;2.80;99.90
1379;DHT22;683;48.738;9.226;2022-12-07T02:56:15;2.80;99.90
1379;DHT22;683;48.738;9.226;2022-12-07T02:58:53;2.80;99.90
1379;DHT22;683;48.738;9.226;2022-12-07T03:01:30;2.70;99.90
1379;DHT22;683;48.738;9.226;2022-12-07T03:04:05;2.80;99.90
1379;DHT22;683;48.738;9.226;2022-12-07T03:06:37;2.70;99.90
1379;DHT22;683;48.738;9.226;2022-12-07T03:09:12;2.70;99.90
1379;DHT22;683;48.738;9.226;2022-12-07T03:11:46;2.70;99.90
1379;DHT22;683;48.738;9.226;2022-12-07T03:14:18;2.70;99.90
1379;DHT22;683;48.738;9.226;2022-12-07T03:16:50;2.70;99.90
1379;DHT22;683;48.738;9.226;2022-12-07T03:19:21;2.70;99.90
1379;DHT22;683;48.738;9.226;2022-12-07T03:21:53;2.70;99.90
1379;DHT22;683;48.738;9.226;2022-12-07T03:24:26;2.70;99.90
1379;DHT22;683;48.738;9.226;2022-12-07T03:27:01;2.70;99.90
1379;DHT22;683;48.738;9.226;2022-12-07T03:29:33;2.70;99.90
1379;DHT22;683;48.738;9.226;2022-12-07T03:32:06;2.60;99.90
1379;DHT22;683;48.738;9.226;2022-12-07T03:34:40;2.60;99.90
1379;DHT22;683;48.738;9.226;2022-12-07T03:37:14;2.60;99.90
1379;DHT22;683;48.738;9.226;2022-12-07T03:39:49;2.60;99.90
1379;DHT22;683;48.738;9.226;2022-12-07T03:42:17;2.70;99.90
1379;DHT22;683;48.738;9.226;2022-12-07T03:44:45;2.70;99.90
1379;DHT22;683;48.738;9.226;2022-12-07T03:47:17;2.70;99.90
1379;DHT22;683;48.738;9.226;2022-12-07T03:49:53;2.70;99.90
1379;DHT22;683;48.738;9.226;2022-12-07T03:52:24;2.60;99.90
1379;DHT22;683;48.738;9.226;2022-12-07T03:54:56;2.60;99.90
1379;DHT22;683;48.738;9.226;2022-12-07T03:57:26;2.60;99.90
1379;DHT22;683;48.738;9.226;2022-12-07T03:59:55;2.60;99.90
1379;DHT22;683;48.738;9.226;2022-12-07T04:02:26;2.60;99.90
1379;DHT22;683;48.738;9.226;2022-12-07T04:04:54;2.60;99.90
1379;DHT22;683;48.738;9.226;2022-12-07T04:07:22;2.60;99.90
1379;DHT22;683;48.738;9.226;2022-12-07T04:09:49;2.60;99.90
1379;DHT22;683;48.738;9.226;2022-12-07T04:12:16;2.60;99.90
1379;DHT22;683;48.738;9.226;2022-12-07T04:14:44;2.60;99.90
1379;DHT22;683;48.738;9.226;2022-12-07T04:17:11;2.60;99.90
1379;DHT22;683;48.738;9.226;2022-12-07T04:19:40;2.60;99.90
1379;DHT22;683;48.738;9.226;2022-12-07T04:22:07;2.60;99.90
1379;DHT22;683;48.738;9.226;2022-12-07T04:24:34;2.60;99.90
1379;DHT22;683;48.738;9.226;2022-12-07T04:27:02;2.50;99.90
1379;DHT22;683;48.738;9.226;2022-12-07T04:29:29;2.50;99.90
1379;DHT22;683;48.738;9.226;2022-12-07T04:31:56;2.50;99.90
1379;DHT22;683;48.738;9.226;2022-12-07T04:34:23;2.50;99.90
1379;DHT22;683;48.738;9.226;2022-12-07T04:36:52;2.40;99.90
1379;DHT22;683;48.738;9.226;2022-12-07T04:39:22;2.40;99.90
1379;DHT22;683;48.738;9.226;2022-12-07T04:41:50;2.40;99.90
1379;DHT22;683;48.738;9.226;2022-12-07T04:44:19;2.30;99.90
1379;DHT22;683;48.738;9.226;2022-12-07T04:46:46;2.30;99.90
1379;DHT22;683;48.738;9.226;2022-12-07T04:49:14;2.20;99.90
1379;DHT22;683;48.738;9.226;2022-12-07T04:51:42;2.20;99.90
1379;DHT22;683;48.738;9.226;2022-12-07T04:54:10;2.20;99.90
1379;DHT22;683;48.738;9.226;2022-12-07T04:56:38;2.20;99.90
1379;DHT22;683;48.738;9.226;2022-12-07T04:59:05;2.20;99.90
1379;DHT22;683;48.738;9.226;2022-12-07T05:01:33;2.20;99.90
1379;DHT22;683;48.738;9.226;2022-12-07T05:04:01;2.30;99.90
1379;DHT22;683;48.738;9.226;2022-12-07T05:06:28;2.30;99.90
1379;DHT22;683;48.738;9.226;2022-12-07T05:08:55;2.30;99.90
1379;DHT22;683;48.738;9.226;2022-12-07T05:11:24;2.30;99.90
1379;DHT22;683;48.738;9.226;2022-12-07T05:14:10;2.30;99.90
1379;DHT22;683;48.738;9.226;2022-12-07T05:16:37;2.30;99.90
1379;DHT22;683;48.738;9.226;2022-12-07T05:19:06;2.30;99.90
1379;DHT22;683;48.738;9.226;2022-12-07T05:21:34;2.40;99.90
1379;DHT22;683;48.738;9.226;2022-12-07T05:24:02;2.40;99.90
1379;DHT22;683;48.738;9.226;2022-12-07T05:26:31;2.40;99.90
1379;DHT22;683;48.738;9.226;2022-12-07T05:28:58;2.30;99.90
1379;DHT22;683;48.738;9.226;2022-12-07T05:31:26;2.30;99.90
1379;DHT22;683;48.738;9.226;2022-12-07T05:33:54;2.20;99.90
1379;DHT22;683;48.738;9.226;2022-12-07T05:36:21;2.20;99.90
1379;DHT22;683;48.738;9.226;2022-12-07T05:38:49;2.20;99.90
1379;DHT22;683;48.738;9.226;2022-12-07T05:41:17;2.20;99.90
1379;DHT22;683;48.738;9.226;2022-12-07T05:44:15;2.10;99.90
1379;DHT22;683;48.738;9.226;2022-12-07T05:46:43;2.00;99.90
1379;DHT22;683;48.738;9.226;2022-12-07T05:49:10;2.00;99.90
1379;DHT22;683;48.738;9.226;2022-12-07T05:51:37;1.90;99.90
1379;DHT22;683;48.738;9.226;2022-12-07T05:54:04;1.70;99.90
1379;DHT22;683;48.738;9.226;2022-12-07T05:56:32;1.70;99.90
1379;DHT22;683;48.738;9.226;2022-12-07T05:58:59;1.60;99.90
1379;DHT22;683;48.738;9.226;2022-12-07T06:01:45;1.60;99.90
1379;DHT22;683;48.738;9.226;2022-12-07T06:04:12;1.60;99.90
1379;DHT22;683;48.738;9.226;2022-12-07T06:06:39;1.50;99.90
1379;DHT22;683;48.738;9.226;2022-12-07T06:09:07;1.50;99.90
1379;DHT22;683;48.738;9.226;2022-12-07T06:11:34;1.50;99.90
1379;DHT22;683;48.738;9.226;2022-12-07T06:14:19;1.50;99.90
1379;DHT22;683;48.738;9.226;2022-12-07T06:16:47;1.50;99.90
1379;DHT22;683;48.738;9.226;2022-12-07T06:19:15;1.60;99.90
1379;DHT22;683;48.738;9.226;2022-12-07T06:21:42;1.60;99.90
1379;DHT22;683;48.738;9.226;2022-12-07T06:24:11;1.60;99.90
1379;DHT22;683;48.738;9.226;2022-12-07T06:26:38;1.60;99.90
1379;DHT22;683;48.738;9.226;2022-12-07T06:29:06;1.60;99.90
1379;DHT22;683;48.738;9.226;2022-12-07T06:31:37;1.70;99.90
1379;DHT22;683;48.738;9.226;2022-12-07T06:34:12;1.70;99.90
1379;DHT22;683;48.738;9.226;2022-12-07T06:36:40;1.80;99.90
1379;DHT22;683;48.738;9.226;2022-12-07T06:39:07;1.80;99.90
1379;DHT22;683;48.738;9.226;2022-12-07T06:41:35;1.80;99.90
1379;DHT22;683;48.738;9.226;2022-12-07T06:44:03;1.80;99.90
1379;DHT22;683;48.738;9.226;2022-12-07T06:46:30;1.90;99.90
1379;DHT22;683;48.738;9.226;2022-12-07T06:48:57;1.90;99.90
1379;DHT22;683;48.738;9.226;2022-12-07T06:51:26;2.00;99.90
1379;DHT22;683;48.738;9.226;2022-12-07T06:53:53;2.00;99.90
1379;DHT22;683;48.738;9.226;2022-12-07T06:56:20;2.00;99.90
1379;DHT22;683;48.738;9.226;2022-12-07T06:58:48;2.00;99.90
1379;DHT22;683;48.738;9.226;2022-12-07T07:01:17;2.00;99.90
1379;DHT22;683;48.738;9.226;2022-12-07T07:03:45;2.00;99.90
1379;DHT22;683;48.738;9.226;2022-12-07T07:06:13;1.90;99.90
1379;DHT22;683;48.738;9.226;2022-12-07T07:08:42;1.90;99.90
1379;DHT22;683;48.738;9.226;2022-12-07T07:11:11;1.90;99.90
1379;DHT22;683;48.738;9.226;2022-12-07T07:13:38;1.90;99.90
1379;DHT22;683;48.738;9.226;2022-12-07T07:16:07;1.90;99.90
1379;DHT22;683;48.738;9.226;2022-12-07T07:18:34;1.90;99.90
1379;DHT22;683;48.738;9.226;2022-12-07T07:21:02;1.90;99.90
1379;DHT22;683;48.738;9.226;2022-12-07T07:23:29;1.90;99.90
1379;DHT22;683;48.738;9.226;2022-12-07T07:25:58;1.90;99.90
1379;DHT22;683;48.738;9.226;2022-12-07T07:28:25;2.00;99.90
1379;DHT22;683;48.738;9.226;2022-12-07T07:30:52;2.00;99.90
1379;DHT22;683;48.738;9.226;2022-12-07T07:33:19;2.00;99.90
1379;DHT22;683;48.738;9.226;2022-12-07T07:35:47;2.00;99.90
1379;DHT22;683;48.738;9.226;2022-12-07T07:38:33;2.00;99.90
1379;DHT22;683;48.738;9.226;2022-12-07T07:41:01;2.10;99.90
1379;DHT22;683;48.738;9.226;2022-12-07T07:43:29;2.20;99.90
1379;DHT22;683;48.738;9.226;2022-12-07T07:45:56;2.20;99.90
1379;DHT22;683;48.738;9.226;2022-12-07T07:48:23;2.20;99.90
1379;DHT22;683;48.738;9.226;2022-12-07T07:50:51;2.30;99.90
1379;DHT22;683;48.738;9.226;2022-12-07T07:53:18;2.30;99.90
1379;DHT22;683;48.738;9.226;2022-12-07T07:55:51;2.30;99.90
1379;DHT22;683;48.738;9.226;2022-12-07T07:58:20;2.40;99.90
1379;DHT22;683;48.738;9.226;2022-12-07T08:00:48;2.40;99.90
1379;DHT22;683;48.738;9.226;2022-12-07T08:03:15;2.30;99.90
1379;DHT22;683;48.738;9.226;2022-12-07T08:05:42;2.40;99.90
1379;DHT22;683;48.738;9.226;2022-12-07T08:08:10;2.40;99.90
1379;DHT22;683;48.738;9.226;2022-12-07T08:10:37;2.40;99.90
1379;DHT22;683;48.738;9.226;2022-12-07T08:13:04;2.40;99.90
1379;DHT22;683;48.738;9.226;2022-12-07T08:15:40;2.40;99.90
1379;DHT22;683;48.738;9.226;2022-12-07T08:18:08;2.50;99.90
1379;DHT22;683;48.738;9.226;2022-12-07T08:20:36;2.50;99.90
1379;DHT22;683;48.738;9.226;2022-12-07T08:23:04;2.50;99.90
1379;DHT22;683;48.738;9.226;2022-12-07T08:25:33;2.60;99.90
1379;DHT22;683;48.738;9.226;2022-12-07T08:28:00;2.60;99.90
1379;DHT22;683;48.738;9.226;2022-12-07T08:30:28;2.60;99.90
1379;DHT22;683;48.738;9.226;2022-12-07T08:32:57;2.60;99.90
1379;DHT22;683;48.738;9.226;2022-12-07T08:35:24;2.70;99.90
1379;DHT22;683;48.738;9.226;2022-12-07T08:37:52;2.80;99.90
1379;DHT22;683;48.738;9.226;2022-12-07T08:40:19;2.80;99.90
1379;DHT22;683;48.738;9.226;2022-12-07T08:42:49;2.80;99.90
1379;DHT22;683;48.738;9.226;2022-12-07T08:45:18;2.80;99.90
1379;DHT22;683;48.738;9.226;2022-12-07T08:47:48;2.80;99.90
1379;DHT22;683;48.738;9.226;2022-12-07T08:50:19;2.80;99.90
1379;DHT22;683;48.738;9.226;2022-12-07T08:52:49;2.80;99.90
1379;DHT22;683;48.738;9.226;2022-12-07T08:55:18;2.90;99.90
1379;DHT22;683;48.738;9.226;2022-12-07T08:57:47;2.90;99.90
1379;DHT22;683;48.738;9.226;2022-12-07T09:00:15;2.90;99.90
1379;DHT22;683;48.738;9.226;2022-12-07T09:02:43;2.90;99.90
1379;DHT22;683;48.738;9.226;2022-12-07T09:05:10;2.90;99.90
1379;DHT22;683;48.738;9.226;2022-12-07T09:07:42;2.80;99.90
1379;DHT22;683;48.738;9.226;2022-12-07T09:10:11;2.90;99.90
1379;DHT22;683;48.738;9.226;2022-12-07T09:12:38;3.00;99.90
1379;DHT22;683;48.738;9.226;2022-12-07T09:15:06;3.00;99.90
1379;DHT22;683;48.738;9.226;2022-12-07T09:17:34;3.10;99.90
1379;DHT22;683;48.738;9.226;2022-12-07T09:20:02;3.10;99.90
1379;DHT22;683;48.738;9.226;2022-12-07T09:22:29;3.20;99.90
1379;DHT22;683;48.738;9.226;2022-12-07T09:24:58;3.20;99.90
1379;DHT22;683;48.738;9.226;2022-12-07T09:27:26;3.30;99.90
1379;DHT22;683;48.738;9.226;2022-12-07T09:29:54;3.40;99.90
1379;DHT22;683;48.738;9.226;2022-12-07T09:32:21;3.50;99.90
1379;DHT22;683;48.738;9.226;2022-12-07T09:34:49;3.50;99.90
1379;DHT22;683;48.738;9.226;2022-12-07T09:37:16;3.60;99.90
1379;DHT22;683;48.738;9.226;2022-12-07T09:39:52;3.70;99.90
1379;DHT22;683;48.738;9.226;2022-12-07T09:42:29;3.80;99.90
1379;DHT22;683;48.738;9.226;2022-12-07T09:44:59;3.90;99.90
1379;DHT22;683;48.738;9.226;2022-12-07T09:47:35;4.00;99.90
1379;DHT22;683;48.738;9.226;2022-12-07T09:50:05;4.00;99.90
1379;DHT22;683;48.738;9.226;2022-12-07T09:52:33;4.10;99.90
1379;DHT22;683;48.738;9.226;2022-12-07T09:55:00;4.20;99.90
1379;DHT22;683;48.738;9.226;2022-12-07T09:57:32;4.30;99.90
1379;DHT22;683;48.738;9.226;2022-12-07T10:00:16;4.30;99.90
1379;DHT22;683;48.738;9.226;2022-12-07T10:03:03;4.30;99.90
1379;DHT22;683;48.738;9.226;2022-12-07T10:05:34;4.40;99.90
1379;DHT22;683;48.738;9.226;2022-12-07T10:08:02;4.40;99.90
1379;DHT22;683;48.738;9.226;2022-12-07T10:10:31;4.50;99.90
1379;DHT22;683;48.738;9.226;2022-12-07T10:13:05;4.70;99.90
1379;DHT22;683;48.738;9.226;2022-12-07T10:15:54;4.70;99.90
1379;DHT22;683;48.738;9.226;2022-12-07T10:18:27;4.80;99.90
1379;DHT22;683;48.738;9.226;2022-12-07T10:21:10;4.90;99.90
1379;DHT22;683;48.738;9.226;2022-12-07T10:23:39;4.90;99.90
1379;DHT22;683;48.738;9.226;2022-12-07T10:26:26;4.90;99.90
1379;DHT22;683;48.738;9.226;2022-12-07T10:28:58;4.90;99.90
1379;DHT22;683;48.738;9.226;2022-12-07T10:31:26;5.00;99.90
1379;DHT22;683;48.738;9.226;2022-12-07T10:33:54;5.00;99.90
1379;DHT22;683;48.738;9.226;2022-12-07T10:36:24;5.00;99.90
1379;DHT22;683;48.738;9.226;2022-12-07T10:38:59;4.90;99.90
1379;DHT22;683;48.738;9.226;2022-12-07T10:41:26;5.00;99.90
1379;DHT22;683;48.738;9.226;2022-12-07T10:43:56;5.10;99.90
1379;DHT22;683;48.738;9.226;2022-12-07T10:47:09;5.00;99.90
1379;DHT22;683;48.738;9.226;2022-12-07T10:55:43;5.10;99.90
1379;DHT22;683;48.738;9.226;2022-12-07T10:58:27;5.10;99.90
1379;DHT22;683;48.738;9.226;2022-12-07T11:01:06;5.10;99.90
1379;DHT22;683;48.738;9.226;2022-12-07T11:03:56;5.00;99.90
1379;DHT22;683;48.738;9.226;2022-12-07T11:06:34;4.90;99.90
1379;DHT22;683;48.738;9.226;2022-12-07T11:09:22;4.80;99.90
1379;DHT22;683;48.738;9.226;2022-12-07T11:11:58;4.80;99.90
1379;DHT22;683;48.738;9.226;2022-12-07T11:14:33;4.80;99.90
1379;DHT22;683;48.738;9.226;2022-12-07T11:17:09;4.80;99.90
1379;DHT22;683;48.738;9.226;2022-12-07T11:19:51;4.90;99.90
1379;DHT22;683;48.738;9.226;2022-12-07T11:22:26;4.90;99.90
1379;DHT22;683;48.738;9.226;2022-12-07T11:25:00;5.00;99.90
1379;DHT22;683;48.738;9.226;2022-12-07T11:27:35;5.10;99.90
1379;DHT22;683;48.738;9.226;2022-12-07T11:30:16;5.10;99.90
1379;DHT22;683;48.738;9.226;2022-12-07T11:32:59;5.10;99.90
1379;DHT22;683;48.738;9.226;2022-12-07T11:35:38;5.10;99.90
1379;DHT22;683;48.738;9.226;2022-12-07T11:38:12;5.10;99.90
1379;DHT22;683;48.738;9.226;2022-12-07T11:40:43;5.20;99.90
1379;DHT22;683;48.738;9.226;2022-12-07T11:43:18;5.10;99.90
1379;DHT22;683;48.738;9.226;2022-12-07T11:45:52;5.00;99.90
1379;DHT22;683;48.738;9.226;2022-12-07T11:48:30;5.00;99.90
1379;DHT22;683;48.738;9.226;2022-12-07T11:51:01;4.90;99.90
1379;DHT22;683;48.738;9.226;2022-12-07T11:53:33;5.00;99.90
1379;DHT22;683;48.738;9.226;2022-12-07T11:56:05;4.90;99.90
1379;DHT22;683;48.738;9.226;2022-12-07T11:58:47;4.90;99.90
1379;DHT22;683;48.738;9.226;2022-12-07T12:01:26;4.90;99.90
1379;DHT22;683;48.738;9.226;2022-12-07T12:04:03;4.90;99.90
1379;DHT22;683;48.738;9.226;2022-12-07T12:06:33;4.90;99.90
1379;DHT22;683;48.738;9.226;2022-12-07T12:09:05;4.80;99.90
1379;DHT22;683;48.738;9.226;2022-12-07T12:11:51;4.90;99.90
1379;DHT22;683;48.738;9.226;2022-12-07T12:14:35;4.90;99.90
1379;DHT22;683;48.738;9.226;2022-12-07T12:17:27;4.80;99.90
1379;DHT22;683;48.738;9.226;2022-12-07T12:20:03;4.80;99.90
1379;DHT22;683;48.738;9.226;2022-12-07T12:22:35;4.80;99.90
1379;DHT22;683;48.738;9.226;2022-12-07T12:25:07;4.80;99.90
1379;DHT22;683;48.738;9.226;2022-12-07T12:27:39;4.80;99.90
1379;DHT22;683;48.738;9.226;2022-12-07T12:30:23;4.80;99.90
1379;DHT22;683;48.738;9.226;2022-12-07T12:33:02;4.90;99.90
1379;DHT22;683;48.738;9.226;2022-12-07T12:35:34;5.00;99.90
1379;DHT22;683;48.738;9.226;2022-12-07T12:38:21;5.00;99.90
1379;DHT22;683;48.738;9.226;2022-12-07T12:40:51;5.00;99.90
1379;DHT22;683;48.738;9.226;2022-12-07T12:43:45;5.00;99.90
1379;DHT22;683;48.738;9.226;2022-12-07T12:46:48;4.90;99.90
1379;DHT22;683;48.738;9.226;2022-12-07T12:49:34;4.80;99.90
1379;DHT22;683;48.738;9.226;2022-12-07T12:55:20;4.70;99.90
1379;DHT22;683;48.738;9.226;2022-12-07T12:58:31;4.60;99.90
1379;DHT22;683;48.738;9.226;2022-12-07T13:04:30;4.50;99.90
1379;DHT22;683;48.738;9.226;2022-12-07T13:07:02;4.60;99.90
1379;DHT22;683;48.738;9.226;2022-12-07T13:09:32;4.60;99.90
1379;DHT22;683;48.738;9.226;2022-12-07T13:12:04;4.60;99.90
1379;DHT22;683;48.738;9.226;2022-12-07T13:14:58;4.40;99.90
1379;DHT22;683;48.738;9.226;2022-12-07T13:17:57;4.50;99.90
1379;DHT22;683;48.738;9.226;2022-12-07T13:20:56;4.40;99.90
1379;DHT22;683;48.738;9.226;2022-12-07T13:23:35;4.50;99.90
1379;DHT22;683;48.738;9.226;2022-12-07T13:26:14;4.40;99.90
1379;DHT22;683;48.738;9.226;2022-12-07T13:28:45;4.40;99.90
1379;DHT22;683;48.738;9.226;2022-12-07T13:31:20;4.40;99.90
1379;DHT22;683;48.738;9.226;2022-12-07T13:33:50;4.40;99.90
1379;DHT22;683;48.738;9.226;2022-12-07T13:36:22;4.40;99.90
1379;DHT22;683;48.738;9.226;2022-12-07T13:38:53;4.40;99.90
1379;DHT22;683;48.738;9.226;2022-12-07T13:41:21;4.50;99.90
1379;DHT22;683;48.738;9.226;2022-12-07T13:43:53;4.50;99.90
1379;DHT22;683;48.738;9.226;2022-12-07T13:46:27;4.50;99.90
1379;DHT22;683;48.738;9.226;2022-12-07T13:48:58;4.60;99.90
1379;DHT22;683;48.738;9.226;2022-12-07T13:51:27;4.60;99.90
1379;DHT22;683;48.738;9.226;2022-12-07T13:54:01;4.70;99.90
1379;DHT22;683;48.738;9.226;2022-12-07T13:56:33;4.60;99.90
1379;DHT22;683;48.738;9.226;2022-12-07T13:59:05;4.60;99.90
1379;DHT22;683;48.738;9.226;2022-12-07T14:01:33;4.60;99.90
1379;DHT22;683;48.738;9.226;2022-12-07T14:04:19;4.70;99.90
1379;DHT22;683;48.738;9.226;2022-12-07T14:06:49;4.60;99.90
1379;DHT22;683;48.738;9.226;2022-12-07T14:09:18;4.60;99.90
1379;DHT22;683;48.738;9.226;2022-12-07T14:11:48;4.60;99.90
1379;DHT22;683;48.738;9.226;2022-12-07T14:14:20;4.60;99.90
1379;DHT22;683;48.738;9.226;2022-12-07T14:16:59;4.60;99.90
1379;DHT22;683;48.738;9.226;2022-12-07T14:19:45;4.50;99.90
1379;DHT22;683;48.738;9.226;2022-12-07T14:22:26;4.50;99.90
1379;DHT22;683;48.738;9.226;2022-12-07T14:25:18;4.40;99.90
1379;DHT22;683;48.738;9.226;2022-12-07T14:27:51;4.40;99.90
1379;DHT22;683;48.738;9.226;2022-12-07T14:30:25;4.40;99.90
1379;DHT22;683;48.738;9.226;2022-12-07T14:32:55;4.40;99.90
1379;DHT22;683;48.738;9.226;2022-12-07T14:35:24;4.40;99.90
1379;DHT22;683;48.738;9.226;2022-12-07T14:37:51;4.40;99.90
1379;DHT22;683;48.738;9.226;2022-12-07T14:40:20;4.30;99.90
1379;DHT22;683;48.738;9.226;2022-12-07T14:42:53;4.30;99.90
1379;DHT22;683;48.738;9.226;2022-12-07T14:45:24;4.30;99.90
1379;DHT22;683;48.738;9.226;2022-12-07T14:47:52;4.20;99.90
1379;DHT22;683;48.738;9.226;2022-12-07T14:50:20;4.20;99.90
1379;DHT22;683;48.738;9.226;2022-12-07T14:52:51;4.20;99.90
1379;DHT22;683;48.738;9.226;2022-12-07T14:55:23;4.20;99.90
1379;DHT22;683;48.738;9.226;2022-12-07T14:57:51;4.20;99.90
1379;DHT22;683;48.738;9.226;2022-12-07T15:00:20;4.10;99.90
1379;DHT22;683;48.738;9.226;2022-12-07T15:02:49;4.10;99.90
1379;DHT22;683;48.738;9.226;2022-12-07T15:05:17;4.00;99.90
1379;DHT22;683;48.738;9.226;2022-12-07T15:07:45;4.00;99.90
1379;DHT22;683;48.738;9.226;2022-12-07T15:10:16;4.10;99.90
1379;DHT22;683;48.738;9.226;2022-12-07T15:12:44;4.00;99.90
1379;DHT22;683;48.738;9.226;2022-12-07T15:15:12;4.00;99.90
1379;DHT22;683;48.738;9.226;2022-12-07T15:17:39;4.00;99.90
1379;DHT22;683;48.738;9.226;2022-12-07T15:20:11;3.90;99.90
1379;DHT22;683;48.738;9.226;2022-12-07T15:22:39;3.90;99.90
1379;DHT22;683;48.738;9.226;2022-12-07T15:25:07;3.90;99.90
1379;DHT22;683;48.738;9.226;2022-12-07T15:27:35;4.00;99.90
1379;DHT22;683;48.738;9.226;2022-12-07T15:30:03;4.00;99.90
1379;DHT22;683;48.738;9.226;2022-12-07T15:32:31;3.90;99.90
1379;DHT22;683;48.738;9.226;2022-12-07T15:34:58;4.00;99.90
1379;DHT22;683;48.738;9.226;2022-12-07T15:37:27;4.00;99.90
1379;DHT22;683;48.738;9.226;2022-12-07T15:39:54;4.00;99.90
1379;DHT22;683;48.738;9.226;2022-12-07T15:42:21;4.00;99.90
1379;DHT22;683;48.738;9.226;2022-12-07T15:44:48;3.90;99.90
1379;DHT22;683;48.738;9.226;2022-12-07T15:47:30;4.00;99.90
1379;DHT22;683;48.738;9.226;2022-12-07T15:49:57;4.00;99.90
1379;DHT22;683;48.738;9.226;2022-12-07T15:52:24;4.00;99.90
1379;DHT22;683;48.738;9.226;2022-12-07T15:54:53;4.00;99.90
1379;DHT22;683;48.738;9.226;2022-12-07T15:57:20;4.00;99.90
1379;DHT22;683;48.738;9.226;2022-12-07T15:59:48;4.00;99.90
1379;DHT22;683;48.738;9.226;2022-12-07T16:02:15;3.90;99.90
1379;DHT22;683;48.738;9.226;2022-12-07T16:04:42;3.70;99.90
1379;DHT22;683;48.738;9.226;2022-12-07T16:07:10;3.70;99.90
1379;DHT22;683;48.738;9.226;2022-12-07T16:09:40;3.60;99.90
1379;DHT22;683;48.738;9.226;2022-12-07T16:12:09;3.70;99.90
1379;DHT22;683;48.738;9.226;2022-12-07T16:14:36;3.70;99.90
1379;DHT22;683;48.738;9.226;2022-12-07T16:17:04;3.70;99.90
1379;DHT22;683;48.738;9.226;2022-12-07T16:19:31;3.70;99.90
1379;DHT22;683;48.738;9.226;2022-12-07T16:21:59;3.60;99.90
1379;DHT22;683;48.738;9.226;2022-12-07T16:24:26;3.50;99.90
1379;DHT22;683;48.738;9.226;2022-12-07T16:26:54;3.50;99.90
1379;DHT22;683;48.738;9.226;2022-12-07T16:29:23;3.40;99.90
1379;DHT22;683;48.738;9.226;2022-12-07T16:31:51;3.40;99.90
1379;DHT22;683;48.738;9.226;2022-12-07T16:34:19;3.30;99.90
1379;DHT22;683;48.738;9.226;2022-12-07T16:36:46;3.30;99.90
1379;DHT22;683;48.738;9.226;2022-12-07T16:39:13;3.20;99.90
1379;DHT22;683;48.738;9.226;2022-12-07T16:41:40;3.10;99.90
1379;DHT22;683;48.738;9.226;2022-12-07T16:44:10;3.00;99.90
1379;DHT22;683;48.738;9.226;2022-12-07T16:46:39;2.90;99.90
1379;DHT22;683;48.738;9.226;2022-12-07T16:49:12;3.00;99.90
1379;DHT22;683;48.738;9.226;2022-12-07T16:51:40;2.90;99.90
1379;DHT22;683;48.738;9.226;2022-12-07T16:54:10;2.90;99.90
1379;DHT22;683;48.738;9.226;2022-12-07T16:56:37;2.90;99.90
1379;DHT22;683;48.738;9.226;2022-12-07T16:59:05;2.90;99.90
1379;DHT22;683;48.738;9.226;2022-12-07T17:01:32;2.90;99.90
1379;DHT22;683;48.738;9.226;2022-12-07T17:04:02;2.80;99.90
1379;DHT22;683;48.738;9.226;2022-12-07T17:06:30;2.80;99.90
1379;DHT22;683;48.738;9.226;2022-12-07T17:08:59;2.70;99.90
1379;DHT22;683;48.738;9.226;2022-12-07T17:11:28;2.70;99.90
1379;DHT22;683;48.738;9.226;2022-12-07T17:13:57;2.70;99.90